sensor_id;sensor_type;location;lat;lon;timestamp;pressure;altitude;pressure_sealevel;temperature;humidity
8280;BME280;8335;42.646;23.380;2023-02-01T00:01:45;141953.13;;;1.34;94.23
8280;BME280;8335;42.646;23.380;2023-02-01T00:04:12;141960.53;;;1.37;93.74
8280;BME280;8335;42.646;23.380;2023-02-01T00:06:39;141956.84;;;1.36;93.81
8280;BME280;8335;42.646;23.380;2023-02-01T00:09:06;141930.94;;;1.25;95.02
8280;BME280;8335;42.646;23.380;2023-02-01T00:11:33;141895.19;;;1.10;95.14
8280;BME280;8335;42.646;23.380;2023-02-01T00:14:01;141929.72;;;1.25;95.41
8280;BME280;8335;42.646;23.380;2023-02-01T00:16:29;141933.41;;;1.26;94.41
8280;BME280;8335;42.646;23.380;2023-02-01T00:18:58;141929.72;;;1.25;94.64
8280;BME280;8335;42.646;23.380;2023-02-01T00:21:26;141945.75;;;1.31;93.79
8280;BME280;8335;42.646;23.380;2023-02-01T00:23:53;141913.66;;;1.18;94.38
8280;BME280;8335;42.646;23.380;2023-02-01T00:26:25;141927.25;;;1.24;93.54
8280;BME280;8335;42.646;23.380;2023-02-01T00:28:54;141758.34;;;0.54;93.27
8280;BME280;8335;42.646;23.380;2023-02-01T00:31:22;141913.66;;;1.18;93.54
8280;BME280;8335;42.646;23.380;2023-02-01T00:33:49;141909.97;;;1.17;93.47
8280;BME280;8335;42.646;23.380;2023-02-01T00:36:16;141922.31;;;1.22;92.94
8280;BME280;8335;42.646;23.380;2023-02-01T00:38:43;141907.53;;;1.16;93.02
8280;BME280;8335;42.646;23.380;2023-02-01T00:41:11;141832.28;;;0.85;92.96
8280;BME280;8335;42.646;23.380;2023-02-01T00:43:39;141893.94;;;1.10;92.27
8280;BME280;8335;42.646;23.380;2023-02-01T00:46:06;141887.81;;;1.07;92.30
8280;BME280;8335;42.646;23.380;2023-02-01T00:48:34;141895.19;;;1.10;92.13
8280;BME280;8335;42.646;23.380;2023-02-01T00:51:02;141868.03;;;0.99;92.04
8280;BME280;8335;42.646;23.380;2023-02-01T00:53:29;141855.75;;;0.94;91.76
8280;BME280;8335;42.646;23.380;2023-02-01T00:55:56;141850.78;;;0.92;90.81
8280;BME280;8335;42.646;23.380;2023-02-01T00:58:23;141840.94;;;0.88;91.39
8280;BME280;8335;42.646;23.380;2023-02-01T01:01:00;141775.59;;;0.61;90.93
8280;BME280;8335;42.646;23.380;2023-02-01T01:03:27;141811.34;;;0.76;90.22
8280;BME280;8335;42.646;23.380;2023-02-01T01:06:01;141799.00;;;0.71;90.06
8280;BME280;8335;42.646;23.380;2023-02-01T01:08:29;141801.50;;;0.72;89.90
8280;BME280;8335;42.646;23.380;2023-02-01T01:10:55;141796.53;;;0.70;89.66
8280;BME280;8335;42.646;23.380;2023-02-01T01:13:22;141787.94;;;0.66;89.95
8280;BME280;8335;42.646;23.380;2023-02-01T01:15:49;141807.66;;;0.74;89.82
8280;BME280;8335;42.646;23.380;2023-02-01T01:18:16;141806.41;;;0.74;89.55
8280;BME280;8335;42.646;23.380;2023-02-01T01:20:43;141795.31;;;0.69;89.73
8280;BME280;8335;42.646;23.380;2023-02-01T01:23:11;141822.44;;;0.80;89.00
8280;BME280;8335;42.646;23.380;2023-02-01T01:25:39;141810.09;;;0.75;88.67
8280;BME280;8335;42.646;23.380;2023-02-01T01:28:06;141787.94;;;0.66;88.12
8280;BME280;8335;42.646;23.380;2023-02-01T01:30:34;141828.59;;;0.83;87.48
8280;BME280;8335;42.646;23.380;2023-02-01T01:33:01;141833.50;;;0.85;87.07
8280;BME280;8335;42.646;23.380;2023-02-01T01:35:29;141839.72;;;0.88;87.42
8280;BME280;8335;42.646;23.380;2023-02-01T01:37:56;141840.94;;;0.88;86.66
8280;BME280;8335;42.646;23.380;2023-02-01T01:40:25;141837.25;;;0.87;86.77
8280;BME280;8335;42.646;23.380;2023-02-01T01:42:52;141691.78;;;0.26;86.63
8280;BME280;8335;42.646;23.380;2023-02-01T01:45:23;141786.69;;;0.66;86.05
8280;BME280;8335;42.646;23.380;2023-02-01T01:47:53;141848.31;;;0.91;85.66
8280;BME280;8335;42.646;23.380;2023-02-01T01:50:23;141861.88;;;0.97;85.55
8280;BME280;8335;42.646;23.380;2023-02-01T01:52:52;141881.59;;;1.05;84.84
8280;BME280;8335;42.646;23.380;2023-02-01T01:55:24;141843.41;;;0.89;83.97
8280;BME280;8335;42.646;23.380;2023-02-01T01:57:55;141889.03;;;1.08;83.81
8280;BME280;8335;42.646;23.380;2023-02-01T02:00:24;141871.78;;;1.01;83.26
8280;BME280;8335;42.646;23.380;2023-02-01T02:02:54;141765.72;;;0.57;83.31
8280;BME280;8335;42.646;23.380;2023-02-01T02:05:23;141864.34;;;0.98;83.29
8280;BME280;8335;42.646;23.380;2023-02-01T02:07:52;141852.00;;;0.93;82.82
8280;BME280;8335;42.646;23.380;2023-02-01T02:10:20;141845.84;;;0.90;83.13
8280;BME280;8335;42.646;23.380;2023-02-01T02:13:08;141829.81;;;0.83;83.30
8280;BME280;8335;42.646;23.380;2023-02-01T02:15:37;141768.22;;;0.58;84.04
8280;BME280;8335;42.646;23.380;2023-02-01T02:18:12;141762.03;;;0.55;83.99
8280;BME280;8335;42.646;23.380;2023-02-01T02:20:58;141738.63;;;0.46;84.89
8280;BME280;8335;42.646;23.380;2023-02-01T02:23:56;141729.97;;;0.42;85.35
8280;BME280;8335;42.646;23.380;2023-02-01T02:26:35;141695.47;;;0.28;85.16
8280;BME280;8335;42.646;23.380;2023-02-01T02:35:43;141637.59;;;0.04;86.80
8280;BME280;8335;42.646;23.380;2023-02-01T02:38:19;141622.81;;;-0.02;87.15
8280;BME280;8335;42.646;23.380;2023-02-01T02:40:54;141631.44;;;0.02;86.51
8280;BME280;8335;42.646;23.380;2023-02-01T02:43:32;141609.25;;;-0.08;87.43
8280;BME280;8335;42.646;23.380;2023-02-01T02:46:22;141620.34;;;-0.03;87.12
8280;BME280;8335;42.646;23.380;2023-02-01T02:49:11;141598.19;;;-0.12;87.53
8280;BME280;8335;42.646;23.380;2023-02-01T02:51:46;141609.25;;;-0.08;87.58
8280;BME280;8335;42.646;23.380;2023-02-01T02:54:34;141552.59;;;-0.31;87.81
8280;BME280;8335;42.646;23.380;2023-02-01T02:57:20;141611.75;;;-0.07;87.15
8280;BME280;8335;42.646;23.380;2023-02-01T03:00:07;141463.94;;;-0.68;87.46
8280;BME280;8335;42.646;23.380;2023-02-01T03:02:54;141635.13;;;0.03;87.25
8280;BME280;8335;42.646;23.380;2023-02-01T03:05:42;141627.75;;;0.00;86.68
8280;BME280;8335;42.646;23.380;2023-02-01T03:08:13;141653.59;;;0.11;86.64
8280;BME280;8335;42.646;23.380;2023-02-01T03:10:53;141626.47;;;-0.01;86.16
8280;BME280;8335;42.646;23.380;2023-02-01T03:13:28;141656.06;;;0.12;85.53
8280;BME280;8335;42.646;23.380;2023-02-01T03:16:00;141669.63;;;0.17;84.98
8280;BME280;8335;42.646;23.380;2023-02-01T03:18:33;141679.47;;;0.21;84.74
8280;BME280;8335;42.646;23.380;2023-02-01T03:21:06;141690.56;;;0.26;83.71
8280;BME280;8335;42.646;23.380;2023-02-01T03:23:36;141689.34;;;0.25;83.67
8280;BME280;8335;42.646;23.380;2023-02-01T03:26:06;141713.97;;;0.36;82.85
8280;BME280;8335;42.646;23.380;2023-02-01T03:28:36;141733.72;;;0.44;82.89
8280;BME280;8335;42.646;23.380;2023-02-01T03:31:06;141743.53;;;0.48;83.00
8280;BME280;8335;42.646;23.380;2023-02-01T03:33:33;141754.66;;;0.52;82.11
8280;BME280;8335;42.646;23.380;2023-02-01T03:36:15;141739.84;;;0.46;83.10
8280;BME280;8335;42.646;23.380;2023-02-01T03:38:50;141636.34;;;0.04;82.92
8280;BME280;8335;42.646;23.380;2023-02-01T03:41:26;141732.47;;;0.43;82.97
8280;BME280;8335;42.646;23.380;2023-02-01T03:43:56;141746.00;;;0.49;82.93
8280;BME280;8335;42.646;23.380;2023-02-01T03:46:30;141760.81;;;0.55;82.42
8280;BME280;8335;42.646;23.380;2023-02-01T03:49:01;141765.72;;;0.57;82.73
8280;BME280;8335;42.646;23.380;2023-02-01T03:51:29;141726.28;;;0.41;83.04
8280;BME280;8335;42.646;23.380;2023-02-01T03:53:59;141779.28;;;0.63;82.95
8280;BME280;8335;42.646;23.380;2023-02-01T03:56:29;141795.31;;;0.69;82.48
8280;BME280;8335;42.646;23.380;2023-02-01T03:58:56;141794.06;;;0.69;83.02
8280;BME280;8335;42.646;23.380;2023-02-01T04:01:27;141786.69;;;0.66;82.69
8280;BME280;8335;42.646;23.380;2023-02-01T04:03:54;141787.94;;;0.66;82.06
8280;BME280;8335;42.646;23.380;2023-02-01T04:06:21;141790.38;;;0.67;82.79
8280;BME280;8335;42.646;23.380;2023-02-01T04:08:48;141785.47;;;0.65;82.35
8280;BME280;8335;42.646;23.380;2023-02-01T04:11:17;141782.97;;;0.64;82.20
8280;BME280;8335;42.646;23.380;2023-02-01T04:13:44;141791.63;;;0.68;82.15
8280;BME280;8335;42.646;23.380;2023-02-01T04:16:11;141787.94;;;0.66;82.67
8280;BME280;8335;42.646;23.380;2023-02-01T04:18:37;141790.38;;;0.67;82.96
8280;BME280;8335;42.646;23.380;2023-02-01T04:21:04;141787.94;;;0.66;83.67
8280;BME280;8335;42.646;23.380;2023-02-01T04:23:31;141799.00;;;0.71;83.18
8280;BME280;8335;42.646;23.380;2023-02-01T04:26:03;141773.13;;;0.60;83.18
8280;BME280;8335;42.646;23.380;2023-02-01T04:28:31;141808.88;;;0.75;83.58
8280;BME280;8335;42.646;23.380;2023-02-01T04:30:58;141801.50;;;0.72;84.43
8280;BME280;8335;42.646;23.380;2023-02-01T04:33:25;141801.50;;;0.72;85.16
8280;BME280;8335;42.646;23.380;2023-02-01T04:35:52;141823.69;;;0.81;84.89
8280;BME280;8335;42.646;23.380;2023-02-01T04:38:19;141820.00;;;0.79;84.95
8280;BME280;8335;42.646;23.380;2023-02-01T04:40:47;141823.69;;;0.81;84.80
8280;BME280;8335;42.646;23.380;2023-02-01T04:43:14;141818.75;;;0.79;85.44
8280;BME280;8335;42.646;23.380;2023-02-01T04:45:46;141834.75;;;0.86;85.25
8280;BME280;8335;42.646;23.380;2023-02-01T04:48:13;141827.38;;;0.82;85.84
8280;BME280;8335;42.646;23.380;2023-02-01T04:50:40;141837.25;;;0.87;86.36
8280;BME280;8335;42.646;23.380;2023-02-01T04:53:06;141824.91;;;0.81;85.97
8280;BME280;8335;42.646;23.380;2023-02-01T04:55:33;141834.75;;;0.86;86.13
8280;BME280;8335;42.646;23.380;2023-02-01T04:58:00;141824.91;;;0.81;86.64
8280;BME280;8335;42.646;23.380;2023-02-01T05:00:27;141858.19;;;0.95;86.32
8280;BME280;8335;42.646;23.380;2023-02-01T05:02:55;141865.56;;;0.98;86.38
8280;BME280;8335;42.646;23.380;2023-02-01T05:05:22;141859.44;;;0.96;86.53
8280;BME280;8335;42.646;23.380;2023-02-01T05:07:48;141858.19;;;0.95;87.57
8280;BME280;8335;42.646;23.380;2023-02-01T05:10:16;141839.72;;;0.88;88.00
8280;BME280;8335;42.646;23.380;2023-02-01T05:12:43;141829.81;;;0.83;88.98
8280;BME280;8335;42.646;23.380;2023-02-01T05:15:24;141856.97;;;0.95;89.22
8280;BME280;8335;42.646;23.380;2023-02-01T05:17:50;141865.56;;;0.98;88.88
8280;BME280;8335;42.646;23.380;2023-02-01T05:20:19;141859.44;;;0.96;88.77
8280;BME280;8335;42.646;23.380;2023-02-01T05:22:45;141859.44;;;0.96;88.63
8280;BME280;8335;42.646;23.380;2023-02-01T05:25:13;141866.81;;;0.99;89.41
8280;BME280;8335;42.646;23.380;2023-02-01T05:27:40;141866.81;;;0.99;88.38
8280;BME280;8335;42.646;23.380;2023-02-01T05:30:08;141873.00;;;1.01;88.52
8280;BME280;8335;42.646;23.380;2023-02-01T05:32:35;141871.78;;;1.01;88.97
8280;BME280;8335;42.646;23.380;2023-02-01T05:35:02;141864.34;;;0.98;89.80
8280;BME280;8335;42.646;23.380;2023-02-01T05:37:30;141881.59;;;1.05;88.96
8280;BME280;8335;42.646;23.380;2023-02-01T05:39:57;141892.72;;;1.09;88.46
8280;BME280;8335;42.646;23.380;2023-02-01T05:42:23;141882.84;;;1.05;89.31
8280;BME280;8335;42.646;23.380;2023-02-01T05:44:50;141880.38;;;1.04;88.92
8280;BME280;8335;42.646;23.380;2023-02-01T05:47:17;141889.03;;;1.08;88.88
8280;BME280;8335;42.646;23.380;2023-02-01T05:49:45;141906.28;;;1.15;89.15
8280;BME280;8335;42.646;23.380;2023-02-01T05:52:12;141916.13;;;1.19;88.94
8280;BME280;8335;42.646;23.380;2023-02-01T05:54:42;141919.81;;;1.21;88.62
8280;BME280;8335;42.646;23.380;2023-02-01T05:57:09;141940.81;;;1.29;88.88
8280;BME280;8335;42.646;23.380;2023-02-01T05:59:36;141935.84;;;1.27;87.97
8280;BME280;8335;42.646;23.380;2023-02-01T06:02:06;141951.88;;;1.34;87.41
8280;BME280;8335;42.646;23.380;2023-02-01T06:04:33;141955.59;;;1.35;87.30
8280;BME280;8335;42.646;23.380;2023-02-01T06:07:00;141953.13;;;1.34;87.10
8280;BME280;8335;42.646;23.380;2023-02-01T06:09:27;141967.94;;;1.41;86.27
8280;BME280;8335;42.646;23.380;2023-02-01T06:11:55;141976.59;;;1.44;86.19
8280;BME280;8335;42.646;23.380;2023-02-01T06:14:23;141965.47;;;1.40;86.40
8280;BME280;8335;42.646;23.380;2023-02-01T06:16:50;141997.53;;;1.53;85.27
8280;BME280;8335;42.646;23.380;2023-02-01T06:19:16;141974.13;;;1.43;85.62
8280;BME280;8335;42.646;23.380;2023-02-01T06:21:43;141995.09;;;1.52;85.49
8280;BME280;8335;42.646;23.380;2023-02-01T06:24:10;141993.84;;;1.51;85.60
8280;BME280;8335;42.646;23.380;2023-02-01T06:26:37;141987.66;;;1.49;84.83
8280;BME280;8335;42.646;23.380;2023-02-01T06:29:06;141991.41;;;1.50;85.02
8280;BME280;8335;42.646;23.380;2023-02-01T06:31:33;142025.94;;;1.64;83.89
8280;BME280;8335;42.646;23.380;2023-02-01T06:34:00;142029.63;;;1.66;84.10
8280;BME280;8335;42.646;23.380;2023-02-01T06:36:28;142011.13;;;1.58;83.16
8280;BME280;8335;42.646;23.380;2023-02-01T06:38:55;142025.94;;;1.64;83.28
8280;BME280;8335;42.646;23.380;2023-02-01T06:41:24;142043.19;;;1.72;82.84
8280;BME280;8335;42.646;23.380;2023-02-01T06:43:51;142054.28;;;1.76;82.09
8280;BME280;8335;42.646;23.380;2023-02-01T06:46:19;142056.75;;;1.77;82.77
8280;BME280;8335;42.646;23.380;2023-02-01T06:48:46;142054.28;;;1.76;82.94
8280;BME280;8335;42.646;23.380;2023-02-01T06:51:22;142067.88;;;1.82;82.91
8280;BME280;8335;42.646;23.380;2023-02-01T06:53:50;142077.75;;;1.86;81.36
8280;BME280;8335;42.646;23.380;2023-02-01T06:56:17;142097.50;;;1.94;81.01
8280;BME280;8335;42.646;23.380;2023-02-01T06:58:44;142112.31;;;2.00;81.40
8280;BME280;8335;42.646;23.380;2023-02-01T07:01:11;142118.47;;;2.03;79.79
8280;BME280;8335;42.646;23.380;2023-02-01T07:03:40;142127.06;;;2.06;79.32
8280;BME280;8335;42.646;23.380;2023-02-01T07:06:07;142164.13;;;2.22;79.72
8280;BME280;8335;42.646;23.380;2023-02-01T07:08:37;142104.88;;;1.97;79.03
8280;BME280;8335;42.646;23.380;2023-02-01T07:11:05;142161.63;;;2.20;78.41
8280;BME280;8335;42.646;23.380;2023-02-01T07:13:32;142146.88;;;2.14;78.91
8280;BME280;8335;42.646;23.380;2023-02-01T07:16:00;142157.94;;;2.19;78.80
8280;BME280;8335;42.646;23.380;2023-02-01T07:18:27;142188.81;;;2.32;78.58
8280;BME280;8335;42.646;23.380;2023-02-01T07:20:56;142185.13;;;2.30;78.35
8280;BME280;8335;42.646;23.380;2023-02-01T07:23:23;142170.28;;;2.24;79.19
8280;BME280;8335;42.646;23.380;2023-02-01T07:25:53;142176.44;;;2.27;78.04
8280;BME280;8335;42.646;23.380;2023-02-01T07:28:20;142178.91;;;2.28;77.98
8280;BME280;8335;42.646;23.380;2023-02-01T07:30:47;142204.84;;;2.38;77.75
8280;BME280;8335;42.646;23.380;2023-02-01T07:33:17;142219.69;;;2.44;77.57
8280;BME280;8335;42.646;23.380;2023-02-01T07:35:44;142234.50;;;2.51;77.11
8280;BME280;8335;42.646;23.380;2023-02-01T07:38:12;142198.69;;;2.36;76.82
8280;BME280;8335;42.646;23.380;2023-02-01T07:40:39;142264.09;;;2.63;76.79
8280;BME280;8335;42.646;23.380;2023-02-01T07:43:06;142262.88;;;2.62;76.96
8280;BME280;8335;42.646;23.380;2023-02-01T07:45:33;142256.72;;;2.60;76.61
8280;BME280;8335;42.646;23.380;2023-02-01T07:48:00;142264.09;;;2.63;77.35
8280;BME280;8335;42.646;23.380;2023-02-01T07:50:28;142285.09;;;2.71;76.36
8280;BME280;8335;42.646;23.380;2023-02-01T07:52:54;142297.44;;;2.76;76.30
8280;BME280;8335;42.646;23.380;2023-02-01T07:55:23;142292.50;;;2.74;75.49
8280;BME280;8335;42.646;23.380;2023-02-01T07:57:50;142292.50;;;2.74;75.33
8280;BME280;8335;42.646;23.380;2023-02-01T08:00:18;142297.44;;;2.76;75.21
8280;BME280;8335;42.646;23.380;2023-02-01T08:03:03;142303.66;;;2.79;74.84
8280;BME280;8335;42.646;23.380;2023-02-01T08:05:30;142304.88;;;2.80;74.93
8280;BME280;8335;42.646;23.380;2023-02-01T08:07:57;142296.22;;;2.76;75.27
8280;BME280;8335;42.646;23.380;2023-02-01T08:10:25;142308.56;;;2.81;74.36
8280;BME280;8335;42.646;23.380;2023-02-01T08:12:57;142332.03;;;2.91;74.57
8280;BME280;8335;42.646;23.380;2023-02-01T08:15:25;142348.06;;;2.97;75.15
8280;BME280;8335;42.646;23.380;2023-02-01T08:17:53;142354.25;;;3.00;73.57
8280;BME280;8335;42.646;23.380;2023-02-01T08:20:21;142362.91;;;3.03;73.61
8280;BME280;8335;42.646;23.380;2023-02-01T08:22:48;142390.09;;;3.15;73.33
8280;BME280;8335;42.646;23.380;2023-02-01T08:25:15;142417.25;;;3.26;73.56
8280;BME280;8335;42.646;23.380;2023-02-01T08:27:44;142423.41;;;3.28;72.20
8280;BME280;8335;42.646;23.380;2023-02-01T08:30:12;142438.25;;;3.35;72.60
8280;BME280;8335;42.646;23.380;2023-02-01T08:32:39;142458.00;;;3.43;71.58
8280;BME280;8335;42.646;23.380;2023-02-01T08:35:07;142463.00;;;3.45;72.18
8280;BME280;8335;42.646;23.380;2023-02-01T08:37:34;142466.69;;;3.46;71.81
8280;BME280;8335;42.646;23.380;2023-02-01T08:40:01;142503.75;;;3.62;70.71
8280;BME280;8335;42.646;23.380;2023-02-01T08:42:28;142516.13;;;3.67;70.36
8280;BME280;8335;42.646;23.380;2023-02-01T08:45:14;142545.81;;;3.79;70.35
8280;BME280;8335;42.646;23.380;2023-02-01T08:47:41;142577.91;;;3.92;70.65
8280;BME280;8335;42.646;23.380;2023-02-01T08:50:09;142606.34;;;4.04;70.04
8280;BME280;8335;42.646;23.380;2023-02-01T08:52:36;142643.44;;;4.19;69.75
8280;BME280;8335;42.646;23.380;2023-02-01T08:55:03;142706.50;;;4.45;68.90
8280;BME280;8335;42.646;23.380;2023-02-01T08:57:31;142819.06;;;4.91;68.28
8280;BME280;8335;42.646;23.380;2023-02-01T08:59:58;142960.13;;;5.49;66.33
8280;BME280;8335;42.646;23.380;2023-02-01T09:02:26;143171.97;;;6.37;62.91
8280;BME280;8335;42.646;23.380;2023-02-01T09:04:53;143382.63;;;7.23;60.24
8280;BME280;8335;42.646;23.380;2023-02-01T09:07:22;143522.72;;;7.81;57.30
8280;BME280;8335;42.646;23.380;2023-02-01T09:09:48;143675.38;;;8.43;55.92
8280;BME280;8335;42.646;23.380;2023-02-01T09:12:15;143764.75;;;8.80;53.46
8280;BME280;8335;42.646;23.380;2023-02-01T09:14:42;143798.25;;;8.94;52.52
8280;BME280;8335;42.646;23.380;2023-02-01T09:17:09;143762.25;;;8.79;51.43
8280;BME280;8335;42.646;23.380;2023-02-01T09:19:37;143659.25;;;8.37;52.12
8280;BME280;8335;42.646;23.380;2023-02-01T09:22:04;143531.38;;;7.84;54.03
8280;BME280;8335;42.646;23.380;2023-02-01T09:24:31;143412.34;;;7.35;54.56
8280;BME280;8335;42.646;23.380;2023-02-01T09:26:57;143336.75;;;7.04;55.59
8280;BME280;8335;42.646;23.380;2023-02-01T09:29:24;143242.56;;;6.66;57.35
8280;BME280;8335;42.646;23.380;2023-02-01T09:31:51;143252.47;;;6.70;58.11
8280;BME280;8335;42.646;23.380;2023-02-01T09:34:18;143271.03;;;6.77;58.78
8280;BME280;8335;42.646;23.380;2023-02-01T09:36:46;143311.97;;;6.94;58.98
8280;BME280;8335;42.646;23.380;2023-02-01T09:39:13;143385.09;;;7.24;57.56
8280;BME280;8335;42.646;23.380;2023-02-01T09:41:48;143471.88;;;7.60;56.44
8280;BME280;8335;42.646;23.380;2023-02-01T09:44:29;143626.94;;;8.23;56.21
8280;BME280;8335;42.646;23.380;2023-02-01T09:46:59;143733.69;;;8.67;53.35
8280;BME280;8335;42.646;23.380;2023-02-01T09:49:30;143800.72;;;8.95;53.23
8280;BME280;8335;42.646;23.380;2023-02-01T09:52:02;143923.66;;;9.45;51.92
8280;BME280;8335;42.646;23.380;2023-02-01T09:54:41;144103.78;;;10.19;50.27
8280;BME280;8335;42.646;23.380;2023-02-01T09:57:14;144275.38;;;10.89;46.84
8280;BME280;8335;42.646;23.380;2023-02-01T09:59:44;144331.34;;;11.12;45.63
8280;BME280;8335;42.646;23.380;2023-02-01T10:02:16;144342.53;;;11.17;44.86
8280;BME280;8335;42.646;23.380;2023-02-01T10:04:44;144331.34;;;11.12;45.37
8280;BME280;8335;42.646;23.380;2023-02-01T10:07:22;144272.91;;;10.88;45.10
8280;BME280;8335;42.646;23.380;2023-02-01T10:09:58;144270.44;;;10.87;44.75
8280;BME280;8335;42.646;23.380;2023-02-01T10:12:52;144280.34;;;10.91;44.46
8280;BME280;8335;42.646;23.380;2023-02-01T10:15:28;144340.06;;;11.16;43.36
8280;BME280;8335;42.646;23.380;2023-02-01T10:18:11;144272.91;;;10.88;43.93
8280;BME280;8335;42.646;23.380;2023-02-01T10:20:52;144355.00;;;11.22;43.48
8280;BME280;8335;42.646;23.380;2023-02-01T10:23:44;144396.03;;;11.39;42.44
8280;BME280;8335;42.646;23.380;2023-02-01T10:26:18;144342.53;;;11.17;43.72
8280;BME280;8335;42.646;23.380;2023-02-01T10:28:48;144376.13;;;11.30;43.38
8280;BME280;8335;42.646;23.380;2023-02-01T10:31:15;144463.22;;;11.66;41.99
8280;BME280;8335;42.646;23.380;2023-02-01T10:33:44;144409.72;;;11.44;41.79
8280;BME280;8335;42.646;23.380;2023-02-01T10:36:15;144448.28;;;11.60;41.33
8280;BME280;8335;42.646;23.380;2023-02-01T10:38:46;144377.38;;;11.31;42.28
8280;BME280;8335;42.646;23.380;2023-02-01T10:41:15;144374.88;;;11.30;41.94
8280;BME280;8335;42.646;23.380;2023-02-01T10:43:44;144341.31;;;11.16;43.66
8280;BME280;8335;42.646;23.380;2023-02-01T10:46:12;144415.91;;;11.47;42.16
8280;BME280;8335;42.646;23.380;2023-02-01T10:48:39;144403.47;;;11.42;41.22
8280;BME280;8335;42.646;23.380;2023-02-01T10:51:13;144231.84;;;10.71;41.80
8280;BME280;8335;42.646;23.380;2023-02-01T10:53:46;144255.50;;;10.81;43.59
8280;BME280;8335;42.646;23.380;2023-02-01T10:56:22;144275.38;;;10.89;43.02
8280;BME280;8335;42.646;23.380;2023-02-01T10:58:49;144255.50;;;10.81;42.71
8280;BME280;8335;42.646;23.380;2023-02-01T11:01:19;144139.88;;;10.34;43.38
8280;BME280;8335;42.646;23.380;2023-02-01T11:03:53;144029.25;;;9.88;44.04
8280;BME280;8335;42.646;23.380;2023-02-01T11:06:31;144025.53;;;9.87;44.45
8280;BME280;8335;42.646;23.380;2023-02-01T11:09:11;144051.59;;;9.98;44.49
8280;BME280;8335;42.646;23.380;2023-02-01T11:11:54;143986.97;;;9.71;44.46
8280;BME280;8335;42.646;23.380;2023-02-01T11:14:30;143948.47;;;9.55;44.60
8280;BME280;8335;42.646;23.380;2023-02-01T11:17:00;144025.53;;;9.87;44.69
8280;BME280;8335;42.646;23.380;2023-02-01T11:19:28;144090.09;;;10.13;44.57
8280;BME280;8335;42.646;23.380;2023-02-01T11:21:57;144076.47;;;10.08;44.00
8280;BME280;8335;42.646;23.380;2023-02-01T11:24:28;143943.53;;;9.53;44.13
8280;BME280;8335;42.646;23.380;2023-02-01T11:27:00;143834.25;;;9.08;45.28
8280;BME280;8335;42.646;23.380;2023-02-01T11:29:34;143806.94;;;8.97;46.40
8280;BME280;8335;42.646;23.380;2023-02-01T11:32:03;143770.94;;;8.82;47.31
8280;BME280;8335;42.646;23.380;2023-02-01T11:34:36;143770.94;;;8.82;47.80
8280;BME280;8335;42.646;23.380;2023-02-01T11:37:11;143788.31;;;8.90;48.55
8280;BME280;8335;42.646;23.380;2023-02-01T11:39:41;143826.78;;;9.05;46.77
8280;BME280;8335;42.646;23.380;2023-02-01T11:42:13;143814.41;;;9.00;46.87
8280;BME280;8335;42.646;23.380;2023-02-01T11:44:42;143859.06;;;9.19;46.33
8280;BME280;8335;42.646;23.380;2023-02-01T11:47:26;143814.41;;;9.00;47.45
8280;BME280;8335;42.646;23.380;2023-02-01T11:49:54;143857.84;;;9.18;46.19
8280;BME280;8335;42.646;23.380;2023-02-01T11:52:34;143873.97;;;9.25;46.69
8280;BME280;8335;42.646;23.380;2023-02-01T11:55:16;143897.56;;;9.34;46.47
8280;BME280;8335;42.646;23.380;2023-02-01T11:57:57;143842.94;;;9.12;46.81
8280;BME280;8335;42.646;23.380;2023-02-01T12:00:39;143783.34;;;8.88;47.36
8280;BME280;8335;42.646;23.380;2023-02-01T12:06:18;143756.03;;;8.76;47.11
8280;BME280;8335;42.646;23.380;2023-02-01T12:09:03;143737.41;;;8.69;48.32
8280;BME280;8335;42.646;23.380;2023-02-01T12:11:43;143703.91;;;8.55;48.25
8280;BME280;8335;42.646;23.380;2023-02-01T12:14:30;143720.03;;;8.62;48.78
8280;BME280;8335;42.646;23.380;2023-02-01T12:17:26;143695.25;;;8.51;48.49
8280;BME280;8335;42.646;23.380;2023-02-01T12:20:10;143684.06;;;8.47;49.17
8280;BME280;8335;42.646;23.380;2023-02-01T12:22:49;143671.63;;;8.42;49.86
8280;BME280;8335;42.646;23.380;2023-02-01T12:25:30;143662.97;;;8.38;49.03
8280;BME280;8335;42.646;23.380;2023-02-01T12:28:27;143633.13;;;8.26;50.47
8280;BME280;8335;42.646;23.380;2023-02-01T12:31:11;143617.00;;;8.19;49.85
8280;BME280;8335;42.646;23.380;2023-02-01T12:33:51;143635.59;;;8.27;49.64
8280;BME280;8335;42.646;23.380;2023-02-01T12:36:25;143574.81;;;8.02;50.20
8280;BME280;8335;42.646;23.380;2023-02-01T12:39:03;143525.22;;;7.82;51.27
8280;BME280;8335;42.646;23.380;2023-02-01T12:41:48;143494.19;;;7.69;52.18
8280;BME280;8335;42.646;23.380;2023-02-01T12:44:32;143476.84;;;7.62;52.36
8280;BME280;8335;42.646;23.380;2023-02-01T12:47:06;143486.78;;;7.66;52.01
8280;BME280;8335;42.646;23.380;2023-02-01T12:49:44;143495.44;;;7.69;52.03
8280;BME280;8335;42.646;23.380;2023-02-01T12:52:15;143459.47;;;7.55;52.43
8280;BME280;8335;42.646;23.380;2023-02-01T12:54:46;143448.34;;;7.50;52.13
8280;BME280;8335;42.646;23.380;2023-02-01T12:57:17;143464.41;;;7.57;51.36
8280;BME280;8335;42.646;23.380;2023-02-01T12:59:52;143449.56;;;7.51;52.17
8280;BME280;8335;42.646;23.380;2023-02-01T13:02:25;143474.34;;;7.61;52.63
8280;BME280;8335;42.646;23.380;2023-02-01T13:05:01;143514.03;;;7.77;52.42
8280;BME280;8335;42.646;23.380;2023-02-01T13:07:32;143504.13;;;7.73;51.46
8280;BME280;8335;42.646;23.380;2023-02-01T13:10:04;143510.31;;;7.76;50.98
8280;BME280;8335;42.646;23.380;2023-02-01T13:12:38;143483.06;;;7.64;50.91
8280;BME280;8335;42.646;23.380;2023-02-01T13:15:15;143474.34;;;7.61;51.17
8280;BME280;8335;42.646;23.380;2023-02-01T13:17:44;143457.00;;;7.54;50.99
8280;BME280;8335;42.646;23.380;2023-02-01T13:20:19;143444.59;;;7.49;51.65
8280;BME280;8335;42.646;23.380;2023-02-01T13:22:51;143409.88;;;7.34;49.63
8280;BME280;8335;42.646;23.380;2023-02-01T13:25:32;143390.03;;;7.26;50.81
8280;BME280;8335;42.646;23.380;2023-02-01T13:28:06;143381.38;;;7.23;50.41
8280;BME280;8335;42.646;23.380;2023-02-01T13:30:47;143386.31;;;7.25;49.84
8280;BME280;8335;42.646;23.380;2023-02-01T13:33:48;143360.28;;;7.14;49.63
8280;BME280;8335;42.646;23.380;2023-02-01T13:36:34;143367.75;;;7.17;49.48
8280;BME280;8335;42.646;23.380;2023-02-01T13:42:20;143289.63;;;6.85;50.38
8280;BME280;8335;42.646;23.380;2023-02-01T13:44:50;143227.69;;;6.59;50.48